Scroll down
FLIGHT INFORMATION
Ryanair

RYR4324

At Arrival Gate

EGNT
 LFPO
DATE: 2020-12-12
GATE:  -
GATE DEPARTURE: 08:44
TAKEOFF: 08:53
DATE: 2020-12-12
GATE:  -
LANDING: 10:22
GATE ARRIVAL: 10:35
FLIGHT DATA
Crew: 
Speed: 
798 kph
Altitude: 
28,009 ft
Stage Length: 
755.3 km
Block Time: 
1.8 hrs
Flight Time: 
1.5 hrs
Fuel Used: 
4,165 kg
Cleared Route: EGNT GIRLI NATEB AGPED UNTAL BAVDO ERKIT USEKA ODNEK MITSO RIMTO BATLI POL LISTO HON KIDLI DIGUT CPT VAPID GWC SITET ETRAT DVL LGL BOBSA LFPO
TRACK DATA
50,000 ft 1,000 kts
AIRCRAFT INFO AND CUMULATIVE STATS
Aircraft Type: 
B738BW
Registration: 
SELCAL: 
MSN/LN: 
44741 / 5891
Operator: 
Total Flights: 
4
Total Block Time: 
7.1 hrs
Total Flight Time: 
6.2 hrs
Total Fuel Used: 
16,972 kg
DATALINK LOG | Newest first | Current as of: 2022-01-17 03:31:07
LABEL SEQUENCE CONTENT Dn/Up
QD371810:35 8.4▼ Dn
QC225810:22▼ Dn
2U4650LFPO 090900Z 19004KT 0700 R02/1600D R25/1400D R07/1600D R24/P2000 R06/P2000 FG BKN002 00/M00 Q1011 NOSIG▲ Up
2S2709LFPO▼ Dn
5U3041LFPO 091328Z 18005KT 6000 BKN005 00/00 Q1011▲ Up
5S1055LFPO▼ Dn
UM205149CLEARED TO FL 280▲ Up
DM65139REQUEST FL 280 DUE TO A/C PERF▼ Dn
QB352808:53▼ Dn
QA262108:44 17.7▼ Dn
A31712NO MATCHING FLIGHT DATA AVAILABLE FROM ANSP▲ Up
B31712EGNT LFPO Z ▼ Dn
Q01510[LINK ACK]▲ Up
Q01510[LINK TEST]▼ Dn


AIRCRAFT HISTORY
FLIGHT DATE FLIGHT NO. ORIGIN DESTINATION CLEARED ROUTE BLOCK TIME FLIGHT TIME FUEL USED PILOT
2020-12-12RYR4324EGNT LFPO EGNT GIRLI NATEB AGPED UNTAL BAVDO ERKIT USEKA ODNEK MITSO RIMTO BATLI POL LISTO HON KIDLI DIGUT CPT VAPID GWC SITET ETRAT DVL LGL BOBSA LFPO1.8 hrs1.5 hrs9,183 lbMike Dryden
2020-12-08RYR5398EIDW EGNT EIDW LIFFY RULAV ABGEP ALAVA MALUD WAL ASMIM BARTN SONEX DENBY POL EGNT1 hrs0.9 hrs6,096 lbMike Dryden
2020-12-08RYR8314EINN EIDW EINN TOMTO TORLU OSGAR EIDW1 hrs0.7 hrs4,589 lbMike Dryden
2020-12-04RYR1649LIRA EINN LIRA GILIO ELB DOBIM GIRAG AKUTI BABED PIGOS BARSO OKTET GIPNO BULOL IDAVO ARDOL BAGBI SIZZA CHABY LAULY BRY CLM UTELA KOPOR SOMIL NITAR VESAN RATUK SOVAT SANDY BIG GOXUL LINDY NORRY CPT KENET GAVGO DEZZU DIKAS LUFTU STU SLANY WTDNB TIPUR EINN3.3 hrs3.1 hrs17,547 lbMike Dryden